Weather at Ken Jones Airport

Public forecast

Using degrees Celsius for public forecast. Weather courtesy of forecast.io.

Closest aviation weather report (METAR) to Ken Jones Airport

Closest report is Norman Manley International Airport, 21.4 nm (39.6 km) SW. Retrieved 2021/05/18 08:00 UTC (39 minutes ago):

MKJP 180800Z 03006KT 9999 FEW022 26/21 Q1013

Closest aviation forecast (TAF) to Ken Jones Airport

Closest forecast is Norman Manley International Airport, 21.4 nm (39.6 km) SW. Retrieved 2021/05/18 06:18 UTC (2 hours ago):

TAF MKJP 180515Z 1806/1906 36005KT 9999 FEW022 BECMG 1816/1818 16013KT BECMG 1903/1905 36006KT